Time;durP1;ratioP1;P1;durP2;ratioP2;P2;SDS_P1;SDS_P2;PMS_P1;PMS_P2;Temp;Humidity;BMP_temperature;BMP_pressure;BME280_temperature;BME280_humidity;BME280_pressure;Samples;Min_cycle;Max_cycle;Signal;HPM_P1;HPM_P2
2023/07/29 00:00:42;;;;;;;4.85;2.60;;;;;;;22.93;43.36;99554.81;5075286;28;20040;-63
2023/07/29 00:03:08;;;;;;;3.70;2.60;;;;;;;22.87;43.98;99563.06;5076415;28;20085;-62
2023/07/29 00:05:34;;;;;;;4.18;2.88;;;;;;;22.88;43.86;99567.41;5076937;28;20039;-61
2023/07/29 00:07:59;;;;;;;3.45;2.60;;;;;;;22.92;43.57;99564.00;5076680;28;20032;-63
2023/07/29 00:10:26;;;;;;;5.65;2.50;;;;;;;22.93;43.53;99564.81;5075644;28;20094;-61
2023/07/29 00:12:51;;;;;;;3.60;2.78;;;;;;;22.95;42.67;99553.75;5075861;28;20032;-61
2023/07/29 00:15:17;;;;;;;5.43;2.90;;;;;;;22.92;41.48;99555.88;5075898;28;20340;-62
2023/07/29 00:17:42;;;;;;;4.65;2.58;;;;;;;22.72;43.83;99547.41;5076369;28;20064;-61
2023/07/29 00:20:08;;;;;;;2.75;2.50;;;;;;;22.64;44.34;99542.44;5076276;28;20134;-62
2023/07/29 00:22:34;;;;;;;3.45;2.47;;;;;;;22.48;43.94;99543.25;5076041;28;20028;-61
2023/07/29 00:24:59;;;;;;;2.97;2.47;;;;;;;22.39;44.47;99542.00;5075351;28;20040;-62
2023/07/29 00:27:25;;;;;;;3.38;2.78;;;;;;;22.11;45.33;99548.25;5057305;28;20040;-62
2023/07/29 00:29:51;;;;;;;2.80;2.58;;;;;;;22.15;44.22;99547.53;5075902;28;20068;-61
2023/07/29 00:32:17;;;;;;;4.65;2.42;;;;;;;22.19;43.79;99559.47;5075748;28;20032;-62
2023/07/29 00:34:42;;;;;;;5.30;2.53;;;;;;;22.32;42.89;99560.22;5075962;28;20040;-62
2023/07/29 00:37:08;;;;;;;2.67;2.42;;;;;;;22.40;42.46;99557.13;5075236;28;20044;-62
2023/07/29 00:39:33;;;;;;;3.25;2.40;;;;;;;22.45;43.05;99563.44;5075441;28;20062;-62
2023/07/29 00:41:59;;;;;;;4.03;2.70;;;;;;;22.34;41.30;99558.09;5072595;28;20028;-62
2023/07/29 00:44:24;;;;;;;3.65;2.90;;;;;;;22.40;40.85;99557.13;5075535;28;20379;-62
2023/07/29 00:46:52;;;;;;;3.92;2.72;;;;;;;22.45;43.58;99558.03;5076180;28;20025;-62
2023/07/29 00:49:19;;;;;;;2.83;2.53;;;;;;;22.45;42.77;99559.91;5075129;28;20036;-62
2023/07/29 00:51:45;;;;;;;3.08;2.50;;;;;;;22.47;42.74;99553.22;5075551;28;20044;-62
2023/07/29 00:54:10;;;;;;;5.07;2.65;;;;;;;22.48;42.07;99546.75;5075521;28;20456;-61
2023/07/29 00:56:37;;;;;;;2.92;2.63;;;;;;;22.58;42.57;99549.63;5075684;28;20266;-62
2023/07/29 00:59:04;;;;;;;3.05;2.75;;;;;;;22.51;43.99;99540.88;5074489;28;20052;-62
2023/07/29 01:01:31;;;;;;;4.28;3.00;;;;;;;22.53;43.81;99559.50;5075380;28;20374;-62
2023/07/29 01:03:57;;;;;;;3.22;2.85;;;;;;;22.48;43.60;99549.47;5075630;28;20074;-62
2023/07/29 01:06:58;;;;;;;5.10;3.17;;;;;;;22.35;44.01;99551.66;5076034;28;20064;-62
2023/07/29 01:10:11;;;;;;;3.90;2.58;;;;;;;22.44;43.96;99556.41;5073504;28;20032;-62
2023/07/29 01:12:53;;;;;;;4.32;3.05;;;;;;;22.18;44.04;99538.97;5015618;28;20041;-62
2023/07/29 01:15:31;;;;;;;3.03;2.72;;;;;;;22.20;44.35;99544.94;5070967;28;20036;-62
2023/07/29 01:18:25;;;;;;;4.10;2.72;;;;;;;22.25;44.71;99546.91;5074918;28;20044;-62
2023/07/29 01:20:54;;;;;;;5.68;3.40;;;;;;;22.14;44.81;99550.47;5072466;28;20098;-63
2023/07/29 01:23:29;;;;;;;4.00;2.80;;;;;;;22.15;44.95;99549.41;5073910;28;20043;-63
2023/07/29 01:25:54;;;;;;;6.10;2.83;;;;;;;22.14;45.55;99550.47;5074250;28;20048;-63
2023/07/29 01:28:20;;;;;;;5.53;3.15;;;;;;;22.11;45.63;99546.38;5074897;28;20045;-63
2023/07/29 01:30:48;;;;;;;4.18;2.90;;;;;;;22.06;46.00;99550.84;5074874;28;20044;-63
2023/07/29 01:33:17;;;;;;;6.57;3.70;;;;;;;22.08;45.05;99552.25;5074563;28;20445;-63
2023/07/29 01:35:48;;;;;;;3.58;2.55;;;;;;;21.98;46.38;99552.84;5074284;28;20038;-63
2023/07/29 01:38:16;;;;;;;4.15;3.28;;;;;;;21.76;47.34;99554.53;5073914;28;20040;-63
2023/07/29 01:40:43;;;;;;;4.18;3.20;;;;;;;21.72;48.24;99556.09;5073898;28;20381;-62
2023/07/29 01:43:09;;;;;;;5.30;3.33;;;;;;;21.58;48.17;99549.34;5074218;28;20032;-63
2023/07/29 01:45:37;;;;;;;5.78;2.90;;;;;;;21.53;46.45;99563.50;5074077;28;20029;-63
2023/07/29 01:48:04;;;;;;;6.00;3.38;;;;;;;21.50;45.29;99565.88;5069683;28;20033;-62
2023/07/29 01:50:31;;;;;;;3.72;3.03;;;;;;;21.48;45.80;99565.28;5074355;28;20112;-63
2023/07/29 01:52:57;;;;;;;3.53;2.72;;;;;;;21.49;45.43;99569.63;5072837;28;20395;-62
2023/07/29 01:55:23;;;;;;;8.43;3.42;;;;;;;21.49;45.65;99566.91;5074360;28;20040;-63
2023/07/29 01:57:48;;;;;;;5.32;2.97;;;;;;;21.40;45.44;99566.47;5072481;28;20044;-63
2023/07/29 02:00:14;;;;;;;3.55;2.90;;;;;;;21.28;44.65;99571.06;5073885;28;20246;-63
2023/07/29 02:02:39;;;;;;;3.92;2.92;;;;;;;21.30;45.71;99572.44;5073751;28;20036;-63
2023/07/29 02:05:05;;;;;;;5.10;2.70;;;;;;;21.46;45.84;99573.59;5074003;28;20360;-63
2023/07/29 02:07:30;;;;;;;3.53;3.20;;;;;;;21.49;46.04;99581.22;5073602;28;20028;-63
2023/07/29 02:09:56;;;;;;;3.60;2.72;;;;;;;21.55;46.37;99577.56;5073161;28;20029;-63
2023/07/29 02:12:21;;;;;;;4.28;3.10;;;;;;;21.66;45.56;99581.28;5073993;28;20044;-63
2023/07/29 02:14:47;;;;;;;3.60;3.30;;;;;;;21.78;45.52;99571.28;5074707;28;20040;-63
2023/07/29 02:17:12;;;;;;;4.78;3.25;;;;;;;21.85;45.84;99577.41;5074336;28;20032;-63
2023/07/29 02:19:37;;;;;;;7.05;3.40;;;;;;;21.92;45.53;99583.47;5074303;28;20345;-64
2023/07/29 02:22:03;;;;;;;4.22;3.38;;;;;;;21.92;45.15;99586.16;5074092;28;20039;-63
2023/07/29 02:24:29;;;;;;;4.40;2.97;;;;;;;21.94;44.52;99589.44;5073055;28;20082;-64
2023/07/29 02:26:54;;;;;;;5.97;3.00;;;;;;;21.97;45.11;99591.66;5074463;28;20036;-63
2023/07/29 02:29:20;;;;;;;4.45;2.85;;;;;;;21.95;45.76;99587.56;5074306;28;20036;-63
2023/07/29 02:31:45;;;;;;;4.32;3.05;;;;;;;21.95;45.54;99577.59;5069593;28;20199;-63
2023/07/29 02:34:10;;;;;;;4.30;3.03;;;;;;;21.93;45.08;99568.13;5073785;28;20028;-63
2023/07/29 02:36:36;;;;;;;4.82;3.00;;;;;;;21.92;45.57;99571.88;5073689;28;20090;-63
2023/07/29 02:39:01;;;;;;;5.32;3.42;;;;;;;21.87;44.58;99575.28;5074247;28;20225;-62
2023/07/29 02:41:27;;;;;;;3.38;3.08;;;;;;;21.77;45.24;99576.94;5072886;28;20242;-63
2023/07/29 02:43:52;;;;;;;3.70;3.40;;;;;;;21.60;46.49;99587.63;5073271;28;20047;-63
2023/07/29 02:46:18;;;;;;;5.13;3.00;;;;;;;21.61;46.42;99586.56;5073805;28;20048;-63
2023/07/29 02:48:44;;;;;;;4.10;2.90;;;;;;;21.60;46.62;99591.16;5064273;28;20033;-63
2023/07/29 02:51:10;;;;;;;6.53;3.47;;;;;;;21.46;47.49;99588.94;5073963;28;20338;-63
2023/07/29 02:53:38;;;;;;;4.63;3.08;;;;;;;21.42;47.58;99593.97;5073053;28;20035;-62
2023/07/29 02:56:04;;;;;;;6.72;3.53;;;;;;;21.33;47.79;99598.91;5072574;28;20344;-64
2023/07/29 02:58:30;;;;;;;3.53;3.00;;;;;;;21.30;47.64;99595.88;5072774;28;20049;-64
2023/07/29 03:01:06;;;;;;;4.38;3.28;;;;;;;21.25;47.79;99601.16;5072266;28;20036;-62
2023/07/29 03:03:32;;;;;;;4.35;3.47;;;;;;;21.17;48.15;99599.59;5069605;28;20044;-62
2023/07/29 03:06:06;;;;;;;5.72;3.15;;;;;;;21.13;48.67;99597.59;5072868;28;20131;-62
2023/07/29 03:08:32;;;;;;;4.25;3.08;;;;;;;21.01;48.89;99590.34;5072547;28;20082;-61
2023/07/29 03:10:58;;;;;;;4.80;3.47;;;;;;;21.11;49.00;99597.03;5072944;28;20103;-62
2023/07/29 03:13:24;;;;;;;4.32;3.38;;;;;;;21.11;49.21;99599.72;5068669;28;20048;-61
2023/07/29 03:15:50;;;;;;;7.05;3.88;;;;;;;21.12;48.79;99599.47;5072748;28;20195;-61
2023/07/29 03:18:16;;;;;;;4.03;3.60;;;;;;;21.15;48.66;99599.00;5071824;28;20090;-62
2023/07/29 03:20:41;;;;;;;7.28;4.25;;;;;;;21.14;48.93;99599.25;5076675;28;20036;-62
2023/07/29 03:23:07;;;;;;;6.78;3.60;;;;;;;21.05;49.25;99604.16;5075998;28;20055;-61
2023/07/29 03:25:33;;;;;;;5.03;3.70;;;;;;;20.91;49.81;99602.75;5077559;28;20078;-61
2023/07/29 03:27:58;;;;;;;4.55;3.65;;;;;;;20.83;50.44;99597.69;5078927;28;20048;-62
2023/07/29 03:30:24;;;;;;;6.50;3.63;;;;;;;20.92;50.56;99615.16;5076668;28;20054;-61
2023/07/29 03:32:50;;;;;;;5.72;3.38;;;;;;;20.97;50.17;99612.56;5076954;28;20104;-61
2023/07/29 03:35:15;;;;;;;6.22;4.13;;;;;;;20.93;50.01;99609.53;5076636;28;20045;-62
2023/07/29 03:37:41;;;;;;;7.85;5.03;;;;;;;20.93;49.59;99614.91;5077253;28;20036;-63
2023/07/29 03:40:09;;;;;;;8.30;4.20;;;;;;;20.99;50.24;99622.06;5077634;28;20048;-62
2023/07/29 03:42:35;;;;;;;6.95;4.20;;;;;;;21.11;50.60;99624.75;5079329;28;20032;-62
2023/07/29 03:45:00;;;;;;;6.60;4.10;;;;;;;21.14;50.34;99635.06;5078445;28;20044;-62
2023/07/29 03:47:26;;;;;;;5.90;4.28;;;;;;;21.26;50.23;99627.03;5079527;28;20078;-63
2023/07/29 03:49:51;;;;;;;9.13;4.78;;;;;;;21.37;50.48;99636.97;5078249;28;20357;-62
2023/07/29 03:52:17;;;;;;;8.35;5.10;;;;;;;21.46;49.93;99637.44;5058141;28;20024;-62
2023/07/29 03:54:42;;;;;;;10.27;4.90;;;;;;;21.54;48.57;99637.06;5076170;28;20029;-62
2023/07/29 03:57:08;;;;;;;10.60;5.35;;;;;;;21.53;49.79;99635.44;5075208;28;20379;-61
2023/07/29 03:59:33;;;;;;;8.93;5.03;;;;;;;21.58;49.35;99639.06;5076745;28;20369;-62
2023/07/29 04:02:00;;;;;;;6.65;4.32;;;;;;;21.59;50.72;99631.78;5076909;28;20437;-62
2023/07/29 04:04:26;;;;;;;10.63;5.03;;;;;;;21.62;53.37;99636.72;5077492;28;20028;-63
2023/07/29 04:06:51;;;;;;;6.28;4.22;;;;;;;21.61;53.67;99635.06;5076950;28;20040;-62
2023/07/29 04:09:17;;;;;;;6.68;4.40;;;;;;;21.64;52.12;99630.03;5076949;28;20054;-62
2023/07/29 04:11:43;;;;;;;8.20;4.68;;;;;;;21.65;51.21;99623.59;5076119;28;20195;-62
2023/07/29 04:14:08;;;;;;;12.32;5.00;;;;;;;21.78;50.79;99635.97;5076206;28;20104;-62
2023/07/29 04:16:34;;;;;;;10.95;5.38;;;;;;;21.91;50.37;99632.22;5075792;28;20044;-62
2023/07/29 04:18:59;;;;;;;6.68;4.20;;;;;;;22.02;51.81;99641.34;5075818;28;20029;-62
2023/07/29 04:21:25;;;;;;;7.13;4.95;;;;;;;22.06;52.42;99645.22;5075469;28;20264;-62
2023/07/29 04:23:51;;;;;;;15.77;4.72;;;;;;;22.16;51.50;99640.03;5074919;28;20025;-63
2023/07/29 04:26:16;;;;;;;5.40;4.63;;;;;;;22.28;50.72;99644.31;5075419;28;20036;-62
2023/07/29 04:28:42;;;;;;;7.65;4.93;;;;;;;22.40;50.30;99644.28;5075922;28;20032;-63
2023/07/29 04:31:08;;;;;;;13.50;7.85;;;;;;;22.41;49.54;99643.22;5075188;28;20043;-62
2023/07/29 04:33:33;;;;;;;12.10;6.47;;;;;;;22.37;49.45;99638.53;5075592;28;20032;-63
2023/07/29 04:35:59;;;;;;;9.90;5.05;;;;;;;22.37;49.00;99652.84;5075859;28;20112;-63
2023/07/29 04:38:32;;;;;;;8.65;5.15;;;;;;;22.53;48.56;99649.38;5074858;28;20044;-62
2023/07/29 04:41:00;;;;;;;11.63;6.35;;;;;;;22.81;48.73;99655.81;5075724;28;20108;-63
2023/07/29 04:43:28;;;;;;;10.05;5.00;;;;;;;23.08;47.04;99647.94;5071623;28;20033;-62
2023/07/29 04:45:54;;;;;;;7.35;5.10;;;;;;;23.30;46.63;99656.09;5075452;28;20032;-63
2023/07/29 04:48:19;;;;;;;6.47;4.30;;;;;;;23.36;45.20;99647.00;5075150;28;20040;-62
2023/07/29 04:50:45;;;;;;;5.70;4.78;;;;;;;23.46;45.31;99647.97;5073943;28;20033;-62
2023/07/29 04:53:10;;;;;;;6.50;5.45;;;;;;;23.52;45.54;99646.16;5075056;28;20039;-62
2023/07/29 04:55:36;;;;;;;7.20;5.38;;;;;;;23.53;45.90;99647.78;5075330;28;20115;-62
2023/07/29 04:58:02;;;;;;;8.02;5.60;;;;;;;23.50;46.59;99648.28;5074714;28;20112;-63
2023/07/29 05:00:27;;;;;;;10.98;5.40;;;;;;;23.54;46.43;99650.28;5074928;28;20396;-63
2023/07/29 05:02:53;;;;;;;10.25;4.93;;;;;;;23.84;46.00;99657.97;5076065;28;20040;-62
2023/07/29 05:05:18;;;;;;;6.70;5.75;;;;;;;24.04;45.40;99659.34;5076869;28;20040;-63
2023/07/29 05:07:44;;;;;;;6.25;5.25;;;;;;;24.23;43.79;99649.81;5075214;28;20051;-62
2023/07/29 05:10:09;;;;;;;7.63;6.00;;;;;;;24.48;43.84;99652.03;5075337;28;20040;-63
2023/07/29 05:12:35;;;;;;;6.28;4.80;;;;;;;24.68;43.76;99657.63;5075692;28;20059;-63
2023/07/29 05:15:00;;;;;;;11.63;7.18;;;;;;;24.82;43.54;99666.16;5075249;28;20208;-64
2023/07/29 05:17:26;;;;;;;14.50;11.35;;;;;;;24.90;42.93;99665.69;5073248;28;20111;-63
2023/07/29 05:19:51;;;;;;;9.77;5.93;;;;;;;25.10;42.24;99668.63;5074574;28;20032;-64
2023/07/29 05:22:17;;;;;;;6.20;4.97;;;;;;;25.18;42.32;99664.63;5073870;28;20051;-63
2023/07/29 05:24:42;;;;;;;7.88;5.00;;;;;;;25.37;41.44;99667.72;5074199;28;20262;-64
2023/07/29 05:27:08;;;;;;;5.20;4.50;;;;;;;25.35;40.91;99668.00;5074135;28;20033;-63
2023/07/29 05:29:34;;;;;;;9.35;7.10;;;;;;;25.30;41.02;99664.44;5073254;28;20215;-63
2023/07/29 05:31:59;;;;;;;7.20;4.82;;;;;;;25.43;40.77;99672.13;5075327;28;20041;-63
2023/07/29 05:34:25;;;;;;;6.13;4.72;;;;;;;25.56;39.98;99674.38;5074995;28;20067;-63
2023/07/29 05:36:50;;;;;;;8.80;5.70;;;;;;;25.62;39.79;99669.78;5075047;28;20052;-62
2023/07/29 05:39:16;;;;;;;6.18;4.22;;;;;;;25.90;39.04;99672.13;5074573;28;20029;-62
2023/07/29 05:41:42;;;;;;;7.18;4.07;;;;;;;26.12;38.33;99679.31;5073899;28;20380;-63
2023/07/29 05:44:07;;;;;;;11.05;6.82;;;;;;;26.15;39.29;99684.22;5073177;28;20476;-63
2023/07/29 05:46:33;;;;;;;11.85;7.60;;;;;;;26.20;38.16;99681.50;5074122;28;20044;-64
2023/07/29 05:48:58;;;;;;;14.40;7.25;;;;;;;26.28;37.55;99675.56;5074614;28;20230;-63
2023/07/29 05:51:24;;;;;;;6.78;5.75;;;;;;;26.39;37.63;99675.38;5058818;28;20319;-65
2023/07/29 05:53:49;;;;;;;12.38;6.25;;;;;;;26.59;37.56;99674.59;5076472;28;20024;-63
2023/07/29 05:56:15;;;;;;;8.43;5.20;;;;;;;26.85;37.02;99675.44;5074924;28;20033;-63
2023/07/29 05:58:40;;;;;;;9.20;4.35;;;;;;;26.99;36.08;99671.13;5076623;28;20080;-63
2023/07/29 06:01:06;;;;;;;5.05;4.57;;;;;;;27.04;35.02;99668.41;5073336;28;20116;-64
2023/07/29 06:03:31;;;;;;;7.00;4.97;;;;;;;27.08;35.67;99665.19;5073712;28;20137;-63
2023/07/29 06:05:57;;;;;;;7.13;4.25;;;;;;;27.19;35.66;99664.91;5074921;28;20040;-63
2023/07/29 06:08:22;;;;;;;6.45;4.85;;;;;;;27.42;35.34;99670.88;5076600;28;20036;-63
2023/07/29 06:10:48;;;;;;;5.45;4.30;;;;;;;27.26;35.71;99670.88;5075289;28;20334;-64
2023/07/29 06:13:13;;;;;;;6.90;4.60;;;;;;;27.50;34.88;99664.88;5073943;28;20103;-63
2023/07/29 06:15:39;;;;;;;7.35;4.32;;;;;;;27.67;35.14;99663.50;5073859;28;20082;-64
2023/07/29 06:18:04;;;;;;;7.18;4.95;;;;;;;27.73;34.93;99668.91;5076484;28;20082;-63
2023/07/29 06:20:30;;;;;;;7.03;4.43;;;;;;;27.64;34.73;99666.75;5075242;28;20318;-64
2023/07/29 06:22:56;;;;;;;4.80;4.00;;;;;;;27.83;34.95;99666.16;5073443;28;20327;-63
2023/07/29 06:25:22;;;;;;;6.57;4.07;;;;;;;27.94;34.97;99662.31;5074268;28;20044;-61
2023/07/29 06:27:47;;;;;;;5.95;5.15;;;;;;;28.14;34.58;99670.44;5073876;28;20218;-61
2023/07/29 06:30:13;;;;;;;5.20;4.07;;;;;;;28.43;34.59;99670.59;5074649;28;20037;-61
2023/07/29 06:32:39;;;;;;;4.28;3.85;;;;;;;28.48;34.54;99676.00;5073534;28;20064;-61
2023/07/29 06:35:05;;;;;;;6.22;3.47;;;;;;;28.59;34.44;99671.31;5072585;28;20115;-62
2023/07/29 06:37:30;;;;;;;6.57;4.43;;;;;;;28.66;34.88;99665.53;5073032;28;20040;-65
2023/07/29 06:39:56;;;;;;;6.35;4.05;;;;;;;28.80;34.24;99672.78;5073535;28;20060;-61
2023/07/29 06:42:22;;;;;;;8.35;6.32;;;;;;;28.81;33.75;99659.97;5073155;28;20032;-62
2023/07/29 06:44:47;;;;;;;6.80;4.57;;;;;;;29.11;32.79;99658.94;5073090;28;20330;-62
2023/07/29 06:47:13;;;;;;;3.58;3.28;;;;;;;29.44;32.65;99651.88;5072856;28;20033;-62
2023/07/29 06:49:38;;;;;;;7.65;3.65;;;;;;;29.52;32.24;99656.69;5072175;28;20276;-62
2023/07/29 06:52:04;;;;;;;6.88;4.20;;;;;;;29.56;32.11;99652.28;5074369;28;20028;-62
2023/07/29 06:54:29;;;;;;;8.57;4.55;;;;;;;29.63;32.10;99652.75;5061531;28;20045;-62
2023/07/29 06:56:55;;;;;;;5.55;4.05;;;;;;;29.78;31.82;99649.84;5077681;28;20070;-63
2023/07/29 06:59:21;;;;;;;5.32;3.85;;;;;;;29.74;31.13;99646.09;5076396;28;20045;-62
2023/07/29 07:01:46;;;;;;;11.18;10.20;;;;;;;29.75;31.81;99653.16;5076745;28;20032;-63
2023/07/29 07:04:12;;;;;;;6.05;5.43;;;;;;;29.84;31.61;99651.41;5077159;28;20032;-63
2023/07/29 07:06:37;;;;;;;5.03;4.47;;;;;;;30.09;30.74;99655.78;5077805;28;20044;-62
2023/07/29 07:09:03;;;;;;;5.78;3.70;;;;;;;30.22;30.22;99656.19;5077006;28;20040;-62
2023/07/29 07:11:28;;;;;;;5.07;4.20;;;;;;;30.48;29.95;99652.00;5080254;28;20362;-62
2023/07/29 07:13:54;;;;;;;4.45;3.80;;;;;;;30.56;29.72;99653.25;5080160;28;20314;-62
2023/07/29 07:16:20;;;;;;;4.75;3.55;;;;;;;30.63;30.04;99645.53;5077562;28;20354;-62
2023/07/29 07:18:45;;;;;;;4.07;3.40;;;;;;;30.78;29.92;99632.44;5078659;28;20196;-63
2023/07/29 07:21:11;;;;;;;7.40;4.20;;;;;;;30.78;29.67;99637.91;5077803;28;20036;-63
2023/07/29 07:23:36;;;;;;;4.43;3.95;;;;;;;30.87;28.63;99635.28;5078848;28;20120;-63
2023/07/29 07:26:02;;;;;;;4.35;3.10;;;;;;;31.20;29.05;99638.84;5077081;28;20043;-63
2023/07/29 07:28:28;;;;;;;4.32;3.33;;;;;;;31.39;28.58;99625.94;5076287;28;20033;-63
2023/07/29 07:30:55;;;;;;;4.22;3.42;;;;;;;31.62;28.52;99621.41;5078090;28;20039;-63
2023/07/29 07:33:21;;;;;;;4.05;3.63;;;;;;;31.73;27.94;99616.56;5078571;28;20253;-63
2023/07/29 07:35:47;;;;;;;3.72;3.25;;;;;;;31.85;28.35;99614.13;5078560;28;20044;-63
2023/07/29 07:38:12;;;;;;;6.68;3.50;;;;;;;31.91;27.58;99618.38;5077894;28;20036;-65
2023/07/29 07:40:38;;;;;;;4.78;3.38;;;;;;;31.78;27.46;99613.72;5078872;28;20102;-62
2023/07/29 07:43:03;;;;;;;4.43;3.83;;;;;;;31.59;28.03;99605.59;5078585;28;20269;-62
2023/07/29 07:45:29;;;;;;;4.50;3.35;;;;;;;31.85;27.56;99605.09;5076309;28;20079;-62
2023/07/29 07:47:55;;;;;;;4.55;3.42;;;;;;;32.10;27.27;99601.00;5058701;28;20038;-62
2023/07/29 08:04:46;;;;;;;5.68;3.63;;;;;;;33.83;24.59;99590.09;5135609;27;20662;-64
2023/07/29 08:07:11;;;;;;;5.18;3.38;;;;;;;33.67;24.00;99588.09;5135391;27;20055;-64
2023/07/29 08:09:37;;;;;;;7.28;4.05;;;;;;;33.49;24.70;99582.53;5135387;27;20358;-63
2023/07/29 08:12:02;;;;;;;3.97;3.60;;;;;;;33.37;25.08;99576.03;5136091;27;20236;-63
2023/07/29 08:14:28;;;;;;;4.47;3.63;;;;;;;33.18;24.59;99577.03;5136362;27;20038;-64
2023/07/29 08:16:53;;;;;;;5.03;3.60;;;;;;;33.11;24.17;99573.13;5135773;27;20050;-63
2023/07/29 08:19:19;;;;;;;3.80;3.38;;;;;;;33.11;24.96;99567.63;5135533;27;20028;-65
2023/07/29 08:21:44;;;;;;;5.15;3.33;;;;;;;33.32;24.64;99571.50;5135947;27;20027;-63
2023/07/29 08:24:10;;;;;;;5.28;4.53;;;;;;;33.36;24.63;99568.94;5135149;27;20348;-65
2023/07/29 08:26:35;;;;;;;5.88;3.75;;;;;;;33.42;24.42;99562.16;5135402;27;20027;-63
2023/07/29 08:29:01;;;;;;;4.32;3.50;;;;;;;33.14;24.65;99572.50;5135798;27;20032;-63
2023/07/29 08:31:26;;;;;;;4.90;3.67;;;;;;;33.08;24.55;99563.59;5135983;27;20028;-63
2023/07/29 08:33:52;;;;;;;5.60;3.60;;;;;;;33.12;24.90;99559.09;5122202;27;20065;-63
2023/07/29 08:36:17;;;;;;;4.82;3.55;;;;;;;33.14;24.57;99551.34;5135541;27;20043;-64
2023/07/29 08:38:43;;;;;;;4.30;3.28;;;;;;;33.24;24.42;99553.81;5134934;27;20034;-64
2023/07/29 08:41:50;;;;;;;3.67;3.30;;;;;;;33.19;24.70;99556.69;5135953;27;20047;-64
2023/07/29 08:44:29;;;;;;;5.00;3.67;;;;;;;32.65;24.53;99557.81;5135176;27;20126;-64
2023/07/29 08:46:57;;;;;;;4.13;3.50;;;;;;;32.69;24.43;99548.66;5134122;27;20084;-64
2023/07/29 08:49:23;;;;;;;4.85;3.60;;;;;;;32.29;24.92;99544.19;5114429;28;20036;-64
2023/07/29 08:51:53;;;;;;;3.80;3.45;;;;;;;32.29;24.94;99542.25;5114066;28;20036;-64
2023/07/29 08:54:18;;;;;;;4.15;3.33;;;;;;;32.36;25.25;99537.16;5112739;28;20028;-64
2023/07/29 08:56:45;;;;;;;4.00;3.40;;;;;;;32.72;24.61;99532.72;5113661;28;20040;-64
2023/07/29 08:59:12;;;;;;;5.80;3.55;;;;;;;32.97;24.66;99535.63;5112622;28;20042;-64
2023/07/29 09:01:41;;;;;;;6.38;3.95;;;;;;;33.01;24.07;99533.88;5111622;28;20016;-64
2023/07/29 09:04:07;;;;;;;4.40;3.63;;;;;;;32.86;25.46;99537.00;5108603;28;20345;-64
2023/07/29 09:06:33;;;;;;;4.07;3.75;;;;;;;32.81;25.49;99526.19;5100286;28;20085;-64
2023/07/29 09:09:02;;;;;;;4.25;3.80;;;;;;;32.73;24.90;99523.34;5099593;28;20343;-64
2023/07/29 09:11:28;;;;;;;3.70;3.40;;;;;;;32.80;25.81;99521.81;5098434;28;20031;-64
2023/07/29 09:13:54;;;;;;;3.85;3.47;;;;;;;32.94;26.73;99518.97;5096754;28;20086;-64
2023/07/29 09:16:23;;;;;;;4.93;4.38;;;;;;;33.19;25.67;99523.78;5098395;28;20036;-64
2023/07/29 09:18:50;;;;;;;4.95;3.65;;;;;;;33.26;24.64;99513.16;5098435;28;20385;-64
2023/07/29 09:21:17;;;;;;;5.18;3.70;;;;;;;32.77;25.38;99518.88;5099680;28;20032;-65
2023/07/29 09:23:44;;;;;;;5.53;3.55;;;;;;;32.43;25.36;99508.50;5097689;28;20250;-64
2023/07/29 09:26:10;;;;;;;5.00;3.47;;;;;;;32.31;25.76;99512.63;5100113;28;20278;-64
2023/07/29 09:28:41;;;;;;;4.25;3.72;;;;;;;32.45;25.27;99507.06;5099284;28;20055;-64
2023/07/29 09:31:07;;;;;;;4.78;3.53;;;;;;;32.56;25.27;99502.94;5099330;28;20363;-64
2023/07/29 09:33:36;;;;;;;4.88;3.85;;;;;;;32.33;25.08;99496.69;5099233;28;20048;-64
2023/07/29 09:36:09;;;;;;;4.95;3.60;;;;;;;32.09;25.60;99501.59;5099011;28;20674;-64
2023/07/29 09:38:35;;;;;;;7.32;3.78;;;;;;;31.77;25.98;99490.84;5098948;28;20445;-65
2023/07/29 09:41:01;;;;;;;3.45;3.15;;;;;;;31.77;25.83;99494.38;5098787;28;20089;-65
2023/07/29 09:43:32;;;;;;;6.03;3.80;;;;;;;31.73;24.75;99483.25;5100271;28;21259;-65
2023/07/29 09:46:01;;;;;;;4.00;3.60;;;;;;;31.87;24.86;99482.41;5099550;28;20028;-63
2023/07/29 09:48:28;;;;;;;3.63;3.17;;;;;;;31.60;25.17;99486.78;5098160;28;20348;-63
2023/07/29 09:50:54;;;;;;;5.80;3.03;;;;;;;31.72;24.89;99484.34;5101094;28;20032;-64
2023/07/29 09:53:21;;;;;;;3.72;3.10;;;;;;;31.70;25.21;99483.03;5096968;28;20052;-63
2023/07/29 09:55:50;;;;;;;4.07;3.00;;;;;;;31.55;25.76;99477.88;5098337;28;20031;-64
2023/07/29 09:58:25;;;;;;;3.45;3.00;;;;;;;31.62;24.88;99475.53;5099197;28;20093;-64
2023/07/29 10:00:51;;;;;;;5.07;3.00;;;;;;;31.39;24.30;99474.66;5098972;28;20067;-64
2023/07/29 10:03:18;;;;;;;3.17;2.88;;;;;;;31.45;24.26;99478.91;5093713;28;20048;-63
2023/07/29 10:05:45;;;;;;;4.10;3.42;;;;;;;31.01;24.17;99476.75;5097602;28;20040;-64
2023/07/29 10:08:11;;;;;;;4.82;3.00;;;;;;;31.07;23.47;99473.59;5097789;28;20055;-64
2023/07/29 10:10:37;;;;;;;3.17;2.65;;;;;;;31.10;22.64;99474.94;5100265;28;20028;-64
2023/07/29 10:13:03;;;;;;;3.60;2.60;;;;;;;31.23;24.09;99473.34;5098821;28;20036;-64
2023/07/29 10:15:30;;;;;;;3.70;2.22;;;;;;;31.00;20.99;99473.19;5098624;28;20032;-64
2023/07/29 10:17:55;;;;;;;2.65;2.45;;;;;;;31.03;22.20;99466.31;5097504;28;20039;-64
2023/07/29 10:20:21;;;;;;;2.38;2.17;;;;;;;30.94;20.48;99471.69;5098758;28;20357;-63
2023/07/29 10:22:48;;;;;;;2.45;2.25;;;;;;;30.99;20.16;99455.19;5095949;28;20095;-63
2023/07/29 10:25:17;;;;;;;2.58;2.35;;;;;;;31.11;21.26;99466.41;5097753;28;20291;-63
2023/07/29 10:27:53;;;;;;;3.30;3.00;;;;;;;31.12;22.54;99464.50;5096581;28;20321;-64
2023/07/29 10:30:18;;;;;;;2.40;2.20;;;;;;;31.27;21.92;99469.72;5097884;28;20039;-64
2023/07/29 10:32:45;;;;;;;4.13;3.00;;;;;;;31.38;22.63;99453.88;5097296;28;20388;-64
2023/07/29 10:35:14;;;;;;;6.95;4.93;;;;;;;31.48;22.89;99459.13;5098355;28;20370;-64
2023/07/29 10:37:41;;;;;;;3.75;3.45;;;;;;;31.61;23.51;99450.09;5098078;28;20119;-64
2023/07/29 10:40:10;;;;;;;2.78;2.58;;;;;;;31.70;22.19;99448.28;5096735;28;20080;-64
2023/07/29 10:42:37;;;;;;;2.58;2.38;;;;;;;31.55;21.68;99445.03;5098481;28;20036;-64
2023/07/29 10:45:20;;;;;;;3.50;2.80;;;;;;;31.63;21.90;99439.66;5098247;28;20480;-64
2023/07/29 10:47:46;;;;;;;2.92;2.60;;;;;;;31.59;21.60;99435.91;5096470;28;20027;-64
2023/07/29 10:50:20;;;;;;;3.20;2.90;;;;;;;31.69;21.98;99430.22;5094410;28;20332;-63
2023/07/29 10:52:50;;;;;;;4.18;3.42;;;;;;;31.67;22.94;99423.41;5097129;28;20120;-64
2023/07/29 10:55:31;;;;;;;2.38;2.17;;;;;;;31.71;23.00;99428.00;5097426;28;20360;-63
2023/07/29 10:58:13;;;;;;;2.72;2.50;;;;;;;31.73;22.54;99423.03;5093101;28;20364;-63
2023/07/29 11:00:41;;;;;;;3.20;2.60;;;;;;;31.76;22.52;99410.63;5097765;28;20050;-63
2023/07/29 11:03:07;;;;;;;2.70;2.50;;;;;;;31.78;22.84;99416.63;5097477;28;20887;-64
2023/07/29 11:05:46;;;;;;;2.53;2.33;;;;;;;31.66;21.97;99416.31;5096587;28;20047;-66
2023/07/29 11:08:22;;;;;;;3.33;2.97;;;;;;;31.68;22.10;99414.91;5097194;28;20036;-63
2023/07/29 11:11:08;;;;;;;2.45;2.25;;;;;;;31.71;21.93;99408.84;5096518;28;20032;-64
2023/07/29 11:13:36;;;;;;;2.88;2.55;;;;;;;31.76;21.57;99405.16;5097726;28;20054;-65
2023/07/29 11:16:02;;;;;;;4.07;2.83;;;;;;;31.75;21.80;99398.88;5096522;28;20114;-64
2023/07/29 11:18:30;;;;;;;2.25;2.05;;;;;;;31.69;22.49;99397.38;5096680;28;20099;-64
2023/07/29 11:20:57;;;;;;;1.85;1.73;;;;;;;31.58;23.21;99398.72;5098208;28;20028;-64
2023/07/29 11:23:33;;;;;;;2.00;1.80;;;;;;;31.55;21.89;99396.59;5095196;28;20044;-64
2023/07/29 11:26:01;;;;;;;3.47;2.15;;;;;;;31.72;22.71;99383.06;5094298;28;20088;-64
2023/07/29 11:28:27;;;;;;;2.47;1.95;;;;;;;31.76;22.18;99388.75;5097218;28;20383;-64
2023/07/29 11:30:54;;;;;;;3.75;1.88;;;;;;;31.83;21.90;99377.34;5095834;28;20054;-64
2023/07/29 11:33:22;;;;;;;2.00;1.90;;;;;;;31.71;22.42;99375.97;5098354;28;20104;-65
2023/07/29 11:35:47;;;;;;;1.88;1.77;;;;;;;31.75;22.72;99381.66;5097716;28;20108;-65
2023/07/29 11:38:18;;;;;;;2.50;1.67;;;;;;;31.73;22.19;99381.16;5096430;28;20067;-64
2023/07/29 11:40:53;;;;;;;2.67;1.88;;;;;;;31.79;22.88;99373.63;5097898;28;20036;-65
2023/07/29 11:43:19;;;;;;;2.53;1.52;;;;;;;31.78;20.95;99372.00;5095954;28;20036;-64
2023/07/29 11:45:44;;;;;;;1.80;1.70;;;;;;;31.69;21.71;99375.47;5094758;28;20028;-63